arxmliv
arxmliv build tool
 
KWARC group
LaTeXML
About
   
 

Detailed info

Back to Homepage

List of missing_macros

No. Date Filename num_warningnum_errornum_xmargok_xmargnum_xmathok_xmathMissing macros
78601 2013-03-15 11:53:27 /0906/0906.1725 1810000[\cancel].
78602 2013-03-15 11:52:36 /0906/0906.1692 2460000[\EuWedge].
78603 2013-03-15 11:52:28 /0906/0906.1702 4120000[\theappendix, \mathds].
78604 2013-03-15 11:52:24 /0906/0906.1713 6120000[\theappendix].
78605 2013-03-15 11:52:12 /0906/0906.1678 1430000[\@end@institute, \psfrag]; 1 missing file[fix-cm.sty].
78606 2013-03-15 11:52:02 /0906/0906.1712 2220000[\affil, \draft, \apj, \timeform, \citep, \pasj, \aap, \Received, \Accepted, \FigureFile, \citet, \SetRunningHead, \KeyWords]; 1 missing file[pasj00.cls].
78607 2013-03-15 11:51:57 /0906/0906.1665 9020000[\psfrag]; 1 missing file[boxedminipage.sty].
78608 2013-03-15 11:51:41 /0906/0906.1695 860000[\mathds, \address, \subjclass, \email, \dedicatory, \keywords]; 1 missing file[tsp-short.cls].
78609 2013-03-15 11:51:36 /0906/0906.1714 1120000[\layoutstyle, \classification].
78610 2013-03-15 11:51:17 /0906/0906.1700 1130000[\Book, \pacs, \shortauthor, \institute, \acknowledgments, \dateenglish, \extrasenglish, \shorttitle, \email, \Name, \REVIEW, \captionsenglish, \etal]; 1 missing file[epl2.cls].
78611 2013-03-15 11:51:13 /0906/0906.1703 020000[\layoutstyle, \classification].
78612 2013-03-15 11:51:04 /0906/0906.1671 36100000[\bra, \bracket, \tr, \proj, \id, \I, \ket, {framed}]; 2 missing files[qip.sty, framed.sty].
78613 2013-03-15 11:51:00 /0906/0906.1682 210000[\ead].
78614 2013-03-15 11:50:59 /0906/0906.1668 8710000[\cortext].
78615 2013-03-15 11:50:51 /0906/0906.1676 920000[\male, \female].
78616 2013-03-15 11:50:20 /0906/0906.1674 490000[\editors, \affiliation, \keywords, \volume, \firstsection, \pagerange, \jname, \pubyear, \etal]; 1 missing file[iaus.cls].
78617 2013-03-15 11:49:51 /0906/0906.1662 1140000[Align, \xymatrix, \ar]; 1 missing file[xy.sty].
78618 2013-03-15 11:49:14 /0906/0906.1654 110000[\@slowromancap].
78619 2013-03-15 11:49:09 /0906/0906.1637 2090000[\extrasenglish, {comment}, {proof}, \dateenglish, \captionsenglish]; 4 missing files[mdwtab.sty, IEEEtran.cls, esint.sty, mdwmath.sty].
78620 2013-03-15 11:49:01 /0906/0906.1629 780000[Align, \xymatrix, \newdir, \ar, \CompileMatrices]; 1 missing file[xy.sty].
78621 2013-03-15 11:48:51 /0906/0906.1627 4710000[\underset].
78622 2013-03-15 11:48:06 /0906/0906.1624 020000[\textdegree]; 1 missing file[ucs.sty].
78623 2013-03-15 11:48:05 /0906/0906.1618 7170000[{IEEEkeywords}, \authorblockA, \appendices, \IEEEauthorrefmark, \balance]; 2 missing files[IEEEtran.cls, balance.sty].
78624 2013-03-15 11:47:48 /0906/0906.1591 33130000[\dlto, \ddline, \lto, \dlline, \dto, \rto, \diagram, \dline, Align, \enddiagram, \drto, \drline]; 1 missing file[xy.sty].
78625 2013-03-15 11:47:47 /0906/0906.1601 840000[\pinlabel, \endlabellist, \labellist]; 1 missing file[pinlabel.sty].
78626 2013-03-15 11:47:38 /0906/0906.1615 250000[{IEEEkeywords}, \IEEEauthorblockA, \IEEEauthorblockN, \subfloat, \IEEEauthorrefmark]; 1 missing file[icrc2009.cls].
78627 2013-03-15 11:47:17 /0906/0906.1551 104810000[\TPGrid]; 1 missing file[textpos.sty].
78628 2013-03-15 11:47:04 /0906/0906.1599 41130000[{IEEEkeywords}, \IEEEauthorblockN, \psfrag, \IEEEpeerreviewmaketitle, \backslashbox, \ifCLASSINFOpdf]; 2 missing files[slashbox.sty, IEEEtran.cls].
78629 2013-03-15 11:46:52 /0906/0906.1610 1420000[\xyoption]; 1 missing file[xy.sty].
78630 2013-03-15 11:46:29 /0906/0906.1597 120000[\affil]; 1 missing file[asp2006.sty].
78631 2013-03-15 11:46:25 /0906/0906.1598 110000[\institute]; 1 missing file[mpi08.cls].
78632 2013-03-15 11:46:18 /0906/0906.1582 110000[\publishers]; 1 missing file[scrartcl.cls].
78633 2013-03-15 11:45:29 /0906/0906.1573 1610000[\subref].
78634 2013-03-15 11:45:11 /0906/0906.1557 7910000[\theappendix].
78635 2013-03-15 11:44:57 /0906/0906.1567 14290000[Align, \restore, \save, \bibsection, \xymatrix, \ar]; 1 missing file[xy.sty].
78636 2013-03-15 11:44:52 /0906/0906.1578 3150000[{singlespace}, \mainauthor, \affiliation, \psfig].
78637 2013-03-15 11:44:48 /0906/0906.1576 210000[\psfrag].
78638 2013-03-15 11:44:25 /0906/0906.1500 3640000[Align, \xymatrix, \ar]; 1 missing file[xy.sty].
78639 2013-03-15 11:44:07 /0906/0906.1549 1670000[\includegraphics, \ShortTitle, \email, \FullConference, \speaker].
78640 2013-03-15 11:43:58 /0906/0906.1550 120000[\mathbb]; 1 missing file[mathbbol.sty].
78641 2013-03-15 11:43:43 /0906/0906.1558 1040000[\runningauthor, \institute, \runningtitle, \comma]; 1 missing file[FBSart.cls].
78642 2013-03-15 11:43:19 /0906/0906.1509 3930000[\mathds, \psfrag]; 1 missing file[version.sty].
78643 2013-03-15 11:43:06 /0906/0906.1485 17710000[\theappendix].
78644 2013-03-15 11:43:05 /0906/0906.1533 010000[\theappendix].
78645 2013-03-15 11:42:30 /0906/0906.1534 040000[\kword, \abst, \inst, \acknowledgements].
78646 2013-03-15 11:42:19 /0906/0906.1488 61140000[Align, \xymatrix, \ar]; 9 missing files[xycurve.sty, xymatrix.sty, xyline.sty, xyarrow.sty, xycmtip.sty, xycolor.sty, xyrotate.sty, xyframe.sty, xygraph.sty].
78647 2013-03-15 11:42:17 /0906/0906.1535 120000[\affil, \keywords]; 1 missing file[vow2008.cls].
78648 2013-03-15 11:42:07 /0906/0906.1519 8100000[\arcmin, \inst, \tablenotes, \institute, \keywords, \volnopage, \titlerunning, \arcsec, \authorrunning, {acknowledgements}]; 1 missing file[raa.cls].
78649 2013-03-15 11:41:52 /0906/0906.1527 2330000[\includegraphics, \refcite]; 1 missing file[ws.sty].
78650 2013-03-15 11:41:03 /0906/0906.1510 8430000[\dotproduct, \figref, \tempK, \scientific, \muZero, \Tb, \vectHd, \Vn, \Ed, \brackettabref, \eqnref, \tnotetext, \eg, \vectmu, \cortext, \Grad, \fnref, \vectMs, \unit, \vect, \Hc, \thicknm, \Ms, \exsitu, \bracketfigref, \tabref, \bracketsubfigref, \subfi
78651 2013-03-15 11:40:57 /0906/0906.1512 410000[\marginsize].
78652 2013-03-15 11:40:19 /0906/0906.1516 020000[\PACS]; 1 missing file[size11.clo.sty].
78653 2013-03-15 11:40:08 /0906/0906.1504 37220000[\xspace, \ifzbstpl, \makezeustitle, \ifzbstnp, \ifzbstepj, \prepnum, \ifzdrftbst, \definecolor, \includegraphics, \ifzeusbst, \multirow, \text]; 1 missing file[./LaTeX/zeus/zeus_paper.cls].
78654 2013-03-15 11:39:49 /0906/0906.1503 9340000[\includegraphics, \ShortTitle, \email, \FullConference, \pos, \speaker]; 1 missing file[PoS.cls].
78655 2013-03-15 11:39:34 /0906/0906.1487 020000[\includegraphics]; 1 missing file[ol2.sty].
78656 2013-03-15 11:39:31 /0906/0906.1427 1810000[{sidewaystable}].
78657 2013-03-15 11:38:44 /0906/0906.1494 010000[\cortext].
78658 2013-03-15 11:38:38 /0906/0906.1476 020000[\PACS]; 1 missing file[size11.clo.sty].
78659 2013-03-15 11:38:28 /0906/0906.1481 1360000[Align, \dir, \xymatrix, \newdir, \ar]; 1 missing file[xy.sty].
78660 2013-03-15 11:38:19 /0906/0906.1465 210000[\mathfrak].
78661 2013-03-15 11:38:08 /0906/0906.1461 32250000[{fmffile}, \theappendix, {fmfgraph*}, \slashed, \fmf, \fmfleft, \fmfright, \fmfv].
78662 2013-03-15 11:37:54 /0906/0906.1468 230000[\ocis, \address, \email].
78663 2013-03-15 11:37:45 /0906/0906.1462 1110000[\geometry].
78664 2013-03-15 11:37:43 /0906/0906.1467 050000[\citename, \shortcite, \And, \AND]; 1 missing file[acl-ijcnlp2009.sty].
78665 2013-03-15 11:37:35 /0906/0906.1456 2710000[\cortext].
78666 2013-03-15 11:37:13 /0906/0906.1339 156910000[\subfloat].
78667 2013-03-15 11:37:04 /0906/0906.1446 140000[{IEEEkeywords}, \IEEEauthorblockA, \IEEEauthorblockN, \IEEEauthorrefmark]; 1 missing file[icrc2009.cls].
78668 2013-03-15 11:36:54 /0906/0906.1451 150000[{IEEEkeywords}, \IEEEauthorblockA, \IEEEauthorblockN, \subfloat, \IEEEauthorrefmark]; 1 missing file[icrc2009.cls].
78669 2013-03-15 11:36:41 /0906/0906.1437 1120000[\pgfsetdash, \pgfputat, \pgfsetlinewidth, {pgfpicture}, \color, \pgfbox, \pgfpoint, \pgfline, \pgfellipse]; 1 missing file[pgf.sty].
78670 2013-03-15 11:36:40 /0906/0906.1417 2110000[\geometry].
78671 2013-03-15 11:36:30 /0906/0906.1424 41300000[\xspace, \ifzbstpl, \lesssim, \makezeustitle, \psfig, \ifzbstnp, \ifzbstepj, \prepnum, \ifzdrftbst, \includegraphics, \draftversion, \ifzeusbst, \text]; 1 missing file[./zeus_paper.cls].
78672 2013-03-15 11:36:10 /0906/0906.1380 16640000[\iddots, {sidewaystable}, \trianglelefteqslant].
78673 2013-03-15 11:35:30 /0906/0906.1410 14350000[\Abstract, {lemma}, \ArticleName, {theorem}, \EmailD, \ShortArticleName, \Address, \Classification, \Author, {example}, {corollary}, {remark}, \AuthorNameForHeading, \Keywords, {proposition}].
78674 2013-03-15 11:34:46 /0906/0906.1403 630000[\address, \abstracts]; 1 missing file[moriond_dpb.sty].
78675 2013-03-15 11:34:39 /0906/0906.1373 71100000[\node, \arrow, \dgARROWLENGTH, {diagram}].
78676 2013-03-15 11:34:30 /0906/0906.1363 43440000[Align, \xymatrix, \ar]; 1 missing file[xy.sty].
78677 2013-03-15 11:34:30 /0906/0906.1399 20240000[\symm, {lemma}, {theorem}, \1, \Letter, {remark}, \zoon, \VV, {proposition}, \Exp, \Prob, {remark*}, {definition}, \moo, \zoo, {corollary}, \AND]; 3 missing files[marvosym.sty, theory.sty, small-caption.sty].
78678 2013-03-15 11:33:54 /0906/0906.1396 250000[\psfrag].
78679 2013-03-15 11:33:50 /0906/0906.1385 7710000[\utilde].
78680 2013-03-15 11:33:47 /0906/0906.1384 17500000[\includegraphics, \bm, \doi, \issn, \received, \issnp]; 1 missing file[gGAF2e.cls].
78681 2013-03-15 11:33:13 /0906/0906.1378 6930000[\sectionfont, \subsectionfont]; 1 missing file[sectsty.sty].
78682 2013-03-15 11:32:55 /0906/0906.1374 44130000[Align, \xymatrix, \textcolor, \ar]; 9 missing files[xycurve.sty, xymatrix.sty, xyline.sty, xyarrow.sty, xycmtip.sty, xycolor.sty, xyrotate.sty, xyframe.sty, xygraph.sty].
78683 2013-03-15 11:32:33 /0906/0906.1361 770000[\tablecomments, \inst, \titlerunning, \volnopage, \institute, \authorrunning, \keywords]; 1 missing file[raa.cls].
78684 2013-03-15 11:32:31 /0906/0906.1377 4620000[\over, \atop].
78685 2013-03-15 11:31:23 /0906/0906.1359 140000[\cmidrule, \toprule, \drawline, \bottomrule].
78686 2013-03-15 11:31:18 /0906/0906.1287 8910000[\theappendix].
78687 2013-03-15 11:30:47 /0906/0906.1353 6180000[\misc, \fax, \affiliation, \phone, \address, \email, {paper}, {authors}, \city, \ack, \mathbb, \country, \psection, \psubsection, {piersabstract}, \postalcode, \nomakeauthor]; 1 missing file[piers.sty].
78688 2013-03-15 11:30:21 /0906/0906.1342 0320000[{algorithm}, \Compute, \ce, \Stop, \extrasenglish, \restylealgo, \For, \If, \Let, \CCT, \Input, \Choose, \SetKwInOut, \Set, \Else, \linesnumbered, \While, \incmargin, \dateenglish, \Output, \AFalse, \SetKwData, \CI, \Return, \BlankLine, \SetKwFunction, \
78689 2013-03-15 11:30:07 /0906/0906.1310 17690000[\kwd, \affiliation, {keyword}, \thankstext, \runtitle, \thanksref, \address, \runauthor, {frontmatter}].
78690 2013-03-15 11:30:05 /0906/0906.1348 15320000[\arcmin, \apj, \timeform, \citep, \atom, \emissiontype, \pasj, \aaps, \nat, \aap, \Accepted, \email, \araa, \KeyWords, \draft, \altaffilmark, \Received, \apjs, \mnras, \FigureFile, \gtrsim, \Mo, \farcm, \contcaption, \altaffiltext, \citet, \fdg, \SetRunn
78691 2013-03-15 11:28:17 /0906/0906.1319 040000[\FloatBarrier, \midrule, \toprule, \bottomrule].
78692 2013-03-15 11:27:58 /0906/0906.1264 82150000[Align, \xymatrix, \geometry, \ar]; 9 missing files[xycurve.sty, xymatrix.sty, xyline.sty, xyarrow.sty, xycmtip.sty, xycolor.sty, xyrotate.sty, xyframe.sty, xygraph.sty].
78693 2013-03-15 11:27:53 /0906/0906.1323 210000[\theappendix].
78694 2013-03-15 11:27:25 /0906/0906.1289 3110000[\mathds].
78695 2013-03-15 11:27:17 /0906/0906.1311 640000[\ShortTitle, \email, \FullConference, \speaker]; 1 missing file[PoS.cls].
78696 2013-03-15 11:27:12 /0906/0906.1294 840000[\ShortTitle, \email, \FullConference, \speaker]; 1 missing file[PoS.cls].
78697 2013-03-15 11:27:08 /0906/0906.1252 14240000[{sidewaystable}].
78698 2013-03-15 11:26:59 /0906/0906.1286 440000[Align, \xymatrix, \ar]; 1 missing file[xy.sty].
78699 2013-03-15 11:26:54 /0906/0906.1288 1240000[\rauthor, \address, \PACS, \rtitle].
78700 2013-03-15 11:26:33 /0906/0906.1279 030000[Align].
78701 2013-03-15 11:26:32 /0906/0906.1272 010000[\nicefrac].
78702 2013-03-15 11:26:31 /0906/0906.1292 030000[\extrasenglish, \dateenglish, \captionsenglish].
78703 2013-03-15 11:26:30 /0906/0906.1274 210000[\varv].
78704 2013-03-15 11:26:14 /0906/0906.1261 5100000[\N, \re, \C, \K, \triangledown, \Cap, \im, \M, \CC, {thm}].
78705 2013-03-15 11:25:53 /0906/0906.1218 41320000[\xymatrixcolsep, \xymatrix, \ar]; 1 missing file[xy.sty].
78706 2013-03-15 11:25:53 /0906/0906.1267 920000[\htmladdnormallink]; 1 missing file[amsaddr.sty].
78707 2013-03-15 11:25:23 /0906/0906.1253 2540000[Align, \xymatrix, \ar]; 1 missing file[xy.sty].
78708 2013-03-15 11:25:08 /0906/0906.1268 090000[\PACSes, \ETC, \BY, \IN, \atque, \acknowledgments, \PACSit, \instlist, \from].
78709 2013-03-15 11:24:54 /0906/0906.1244 4040000[{sidewaystable*}, \rrbracket, \llbracket].
78710 2013-03-15 11:24:48 /0906/0906.1238 710000[\psfrag].
78711 2013-03-15 11:24:19 /0906/0906.1167 254180000[\psfrag]; 1 missing file[header].
78712 2013-03-15 11:23:41 /0906/0906.1230 2120000[\addressemail]; 1 missing file[xy.sty].
78713 2013-03-15 11:23:23 /0906/0906.1232 230000[\fnref, \cortext, \fntext].
78714 2013-03-15 11:22:45 /0906/0906.1199 83120000[\infer]; 1 missing file[xy.sty].
78715 2013-03-15 11:22:40 /0906/0906.1194 3940000[\slashed]; 1 missing file[boxedminipage.sty].
78716 2013-03-15 11:22:23 /0906/0906.1200 010000[\onltab].
78717 2013-03-15 11:22:23 /0906/0906.1210 24440000[\opencite, \surname, \institute, \runningtitle, {opening}, {article}, {acks}, \sep, \runningauthor, \inlinecite]; 2 missing files[spr-sola-addons.sty, SolarPhysics.cls].
78718 2013-03-15 11:22:06 /0906/0906.1159 11120000[\psfrag]; 1 missing file[lettrine.sty].
78719 2013-03-15 11:21:28 /0906/0906.1183 1150000[\Xy, Align, \xymatrix, \ar]; 1 missing file[xy.sty].
78720 2013-03-15 11:21:12 /0906/0906.1182 141420000[{proof*}, {keywords}, \accepted, \autorightarrow, \email, \mathproofbox, \submitted, \revised, \citeN, {proof}]; 2 missing files[tlp.cls, chemarrow.sty].
78721 2013-03-15 11:20:48 /0906/0906.1189 4110000[\IEEEauthorblockA, \IEEEauthorblockN, \psfrag, \IEEEoverridecommandlockouts, {IEEEproof}, \IEEEauthorrefmark]; 4 missing files[mathtools.sty, type1cm.sty, IEEEtran.cls, microtype.sty].
78722 2013-03-15 11:20:48 /0906/0906.1192 040000[\extrasenglish, \dateenglish, \captionsenglish].
78723 2013-03-15 11:20:40 /0906/0906.1168 3510000[\boxempty].
78724 2013-03-15 11:20:23 /0906/0906.1176 2450000[\Xy, Align, \xymatrix, \ar]; 1 missing file[xy.sty].
78725 2013-03-15 11:20:15 /0906/0906.1174 340000[Align, \xymatrix, \ar]; 1 missing file[xy.sty].
78726 2013-03-15 11:20:13 /0906/0906.1164 640000[Align, \xymatrix, \xygraph, \ar].
78727 2013-03-15 11:19:33 /0906/0906.1170 5120000[Align, \xymatrix, \ar]; 9 missing files[xycurve.sty, xymatrix.sty, xyline.sty, xyarrow.sty, xycmtip.sty, xycolor.sty, xyrotate.sty, xyframe.sty, xygraph.sty].
78728 2013-03-15 11:19:10 /0906/0906.1141 3220000[\xrightleftharpoons]; 1 missing file[chemarr.sty].
78729 2013-03-15 11:18:32 /0906/0906.1158 210000[\unit].
78730 2013-03-15 11:18:21 /0906/0906.1160 550000[\includegraphics, \opex, \prl, \ol]; 1 missing file[ol2.sty].
78731 2013-03-15 11:18:08 /0906/0906.1143 010000[\cortext].
78732 2013-03-15 11:18:08 /0906/0906.1150 2180000[\cyrk, \cyrs, \cyrr, \cyre, \cyrt, \cyro, \rus, \cyru, \cyrl, \address, \cyra, \CYRS, \PACS, \cyrery, \cyri, \cyrp, \rtitle]; 1 missing file[T2Aenc.def].
78733 2013-03-15 11:18:04 /0906/0906.1144 110000[\cortext].
78734 2013-03-15 11:17:49 /0906/0906.1122 1240000[\onlfig, \onltab, \varv]; 1 missing file[tipa.sty].
78735 2013-03-15 11:17:40 /0906/0906.1123 24100000[\apj, \aj, \aaps, \apjl, \nat, \aap, \mnras, \apjs, \pasp]; 1 missing file[aas_macros.sty].
78736 2013-03-15 11:17:01 /0906/0906.1092 7820000[\fint]; 1 missing file[esint.sty].
78737 2013-03-15 11:16:59 /0906/0906.1098 21100000[\subfloat, \subref, \psfrag, \psfragscanon, {psfrags}]; 1 missing file[showdim.sty].
78738 2013-03-15 11:16:58 /0906/0906.1110 910000[\theappendix].
78739 2013-03-15 11:16:53 /0906/0906.1096 3090000[\PACSes, \BY, \atque, \acknowledgments, \PACSit, \from, \TITLE, \IN, \instlist].
78740 2013-03-15 11:16:45 /0906/0906.1111 4160000[\titrecourt, \email, \auteurcourt, {resume}, \adresse, {resumanglais}, \titretab]; 1 missing file[rnl.cls].
78741 2013-03-15 11:16:38 /0906/0906.1088 510000[\mathds].
78742 2013-03-15 11:16:24 /0906/0906.1101 520000[\ack, \ead].
78743 2013-03-15 11:16:18 /0906/0906.1086 1040000[\epsfsize, \ellipse, \path, \blacken].
78744 2013-03-15 11:16:15 /0906/0906.1100 230000[\epsfig, \bodymatter]; 1 missing file[ws.sty].
78745 2013-03-15 11:16:03 /0906/0906.1079 17300000[\Comment, \scalprod, \Else, \EndWhile, \While, {algorithmic}, \If, \Macro, \State, \Return, \geometry, \EndIf, \norm]; 1 missing file[functan.sty].
78746 2013-03-15 11:15:46 /0906/0906.1055 7560000[\heavyrulewidth, \midrule, \rowcolor, \toprule, \bottomrule]; 1 missing file[soul.sty].
78747 2013-03-15 11:15:43 /0906/0906.1034 5930000[\tthttp, \mathds]; 1 missing file[soul.sty].
78748 2013-03-15 11:15:42 /0906/0906.1073 110000[\theappendix].
78749 2013-03-15 11:15:26 /0906/0906.1030 342870000[\save, \cir, \xymatrix, \xy, \frm, \theappendix, \POS, \endxy, Align, \restore, \dir, \ar]; 1 missing file[xy.sty].
78750 2013-03-15 11:15:19 /0906/0906.1095 010000[\psfrag].
78751 2013-03-15 11:15:02 /0906/0906.1078 020000[\ack, \ead].
78752 2013-03-15 11:14:42 /0906/0906.0964 10050000[\unit, \member, \advisorname, \psfrag, \disscopyright].
78753 2013-03-15 11:14:41 /0906/0906.1071 010000[\rowcolor].
78754 2013-03-15 11:14:40 /0906/0906.1067 740000[\ShortTitle, \email, \FullConference, \speaker]; 1 missing file[PoS.cls].
78755 2013-03-15 11:14:32 /0906/0906.1068 380000[{IEEEkeywords}, \IEEEauthorblockA, \IEEEauthorblockN, \IEEEauthorrefmark]; 1 missing file[icrc2009.cls].
78756 2013-03-15 11:14:27 /0906/0906.1070 1280000[{IEEEkeywords}, \IEEEauthorblockA, \IEEEauthorblockN, \IEEEauthorrefmark]; 1 missing file[icrc2009.cls].
78757 2013-03-15 11:14:13 /0906/0906.1052 180000[\firstsection, \editors, \affiliation, \jname, \pagerange, \keywords, \volume, \pubyear]; 1 missing file[iaus260.cls].
78758 2013-03-15 11:13:40 /0906/0906.1032 2150000[\pagespan, \subjclass, \DOIsuffix, {acknowledgement}, \keywords].
78759 2013-03-15 11:13:33 /0906/0906.1043 2350000[\titlerunning, \psfig, \institute, \authorrunning]; 1 missing file[ar.sty].
78760 2013-03-15 11:13:20 /0906/0906.1047 530000[{theacknowledgments}, \layoutstyle, \classification].
78761 2013-03-15 11:13:01 /0906/0906.1019 50120000[\conferenceinfo, \affaddr, \titlenote, \numberofauthors, \terms, \alignauthor, \keywords, \crdata, \CopyrightYear, \email, \category, {proof}].
78762 2013-03-15 11:12:40 /0906/0906.1038 910000[\mathfrak].
78763 2013-03-15 11:12:20 /0906/0906.1020 030000[\layoutstyle, \classification]; 1 missing file[{aipcheck}].
78764 2013-03-15 11:12:12 /0906/0906.0842 920000[\nouppercase]; 1 missing file[esint.sty].
78765 2013-03-15 11:11:55 /0906/0906.1004 45150000[\mathds, \kwd, \startlocaldefs, \affiliation, {keyword}, \thankstext, \runtitle, \endlocaldefs, {aug}, \thanksref, \address, \runauthor, \printead, {frontmatter}, \ead]; 1 missing file[imsart.cls].
78766 2013-03-15 11:11:53 /0906/0906.1008 040000[\smaller, {theacknowledgments}, \layoutstyle, \classification].
78767 2013-03-15 11:11:34 /0906/0906.1016 010000[\@end@institute].
78768 2013-03-15 11:11:22 /0906/0906.0962 44110000[\save, \xymatrix, \xy, \frm, \POS, \endxy, Align, \restore, \dir, \ar]; 1 missing file[xy.sty].
78769 2013-03-15 11:11:17 /0906/0906.0992 9420000[\psfrag, \psfragscanon].
78770 2013-03-15 11:11:15 /0906/0906.0989 1110000[\geometry].
78771 2013-03-15 11:11:02 /0906/0906.1002 030000[\extrasenglish, \dateenglish, \captionsenglish].
78772 2013-03-15 11:10:42 /0906/0906.0987 220000[\yng]; 1 missing file[xy.sty].
78773 2013-03-15 11:10:41 /0906/0906.0991 1810000[\linenumbers].
78774 2013-03-15 11:10:06 /0906/0906.0995 1810000[\theappendix].
78775 2013-03-15 11:10:05 /0906/0906.0990 3230000[{theacknowledgments}, \layoutstyle, \classification].
78776 2013-03-15 11:09:37 /0906/0906.0978 1530000[{theacknowledgments}, \layoutstyle, \classification].
78777 2013-03-15 11:09:32 /0906/0906.0968 1320000[\subref]; 1 missing file[tabls.sty].
78778 2013-03-15 11:09:21 /0906/0906.0970 710000[\mathds].
78779 2013-03-15 11:09:03 /0906/0906.0974 3430000[\setmarginsrb]; 2 missing files[gensymb.sty, manual.sty].
78780 2013-03-15 11:08:47 /0906/0906.0975 030000[\extrasenglish, \dateenglish, \captionsenglish].
78781 2013-03-15 11:08:43 /0906/0906.0972 16110000[\Ast, \abstcol, \pacs, \institute, \includegraphics, \published, \titlerunning, \mail, \authorrunning, {acknowledgement}, \received]; 1 missing file[wiley2sp.cls].
78782 2013-03-15 11:08:20 /0906/0906.0956 030000[\@end@institute, \svhline]; 1 missing file[type1cm.sty].
78783 2013-03-15 11:07:05 /0906/0906.0922 13260000[\startlocaldefs, \doi, \syear, \runtitle, \thankstext, \volume, \address, \thanksref, \corref, \firstpage, \received, \pubyear, \kwd, \MR, \lastpage, \snm, {keyword}, \fnms, \endlocaldefs, \smonth, {aug}, \issue, \runauthor, \printead, {frontmatter}, \ea
78784 2013-03-15 11:06:39 /0906/0906.0942 380000[\affil, \citep, {article}, \authoraddr, \authorrunninghead, \citet, \acknowledgements, \titlerunninghead]; 1 missing file[agu2001.cls].
78785 2013-03-15 11:06:11 /0906/0906.0928 040000[{theacknowledgments}, \layoutstyle, \classification]; 1 missing file[{aipcheck}].
78786 2013-03-15 11:06:07 /0906/0906.0919 7310000[\theappendix].
78787 2013-03-15 11:05:51 /0906/0906.0913 2150000[\singleequation, \citeyear, {keywords}, \citep, \doi, \jvol, \issn, \jyear, \jmonth, {multiequations}, \citet, \jnum, \issnp, \received]; 2 missing files[multiequations.sty, gGAF2e.cls].
78788 2013-03-15 11:05:01 /0906/0906.0855 1363200000[\xy, \endxy, \UseAllTwocells, \POS, \xyoption, \Y@ybase, \CompileMatrices, \X@xbase, \ar]; 10 missing files[xycurve.sty, xymatrix.sty, xyline.sty, xyarrow.sty, xycmtip.sty, xycolor.sty, xyrotate.sty, xy.sty, xyframe.sty, xygraph.sty].
78789 2013-03-15 11:04:55 /0906/0906.0903 2140000[{keywords}, \subfigure, \doi, \jvol, \psfig, \issn, \resizebox, \jyear, \articletype, \includegraphics, \jmonth, \jnum, \received, \issnp]; 1 missing file[tCPH2e.cls].
78790 2013-03-15 11:03:41 /0906/0906.0886 3210000[{linenumbers}].
78791 2013-03-15 11:03:38 /0906/0906.0882 920000[\ocircle]; 1 missing file[mathbbol.sty].
78792 2013-03-15 11:03:00 /0906/0906.0870 340000[\address, \subjclass]; 2 missing files[jamsxtra.sty, jamsxfnt.sty].
78793 2013-03-15 11:02:54 /0906/0906.0873 430000[\TCItag, \Qcb, \FRAME].
78794 2013-03-15 11:02:45 /0906/0906.0875 110000[\cortext].
78795 2013-03-15 11:02:34 /0906/0906.0853 11600000[{acknowledgments}, \ls, \iffontfound, \ifCUPmtlplainloaded, \affiliation, \ns, \checkfont]; 1 missing file[jfm.cls].
78796 2013-03-15 11:02:20 /0906/0906.0839 050000[\extrasenglish, \psfrag, \dateenglish, \captionsenglish]; 1 missing file[pstricks-add.sty].
78797 2013-03-15 11:02:06 /0906/0906.0858 2110000[\psfrag].
78798 2013-03-15 11:01:40 /0906/0906.0818 430000[Align, \xymatrix, \ar].
78799 2013-03-15 11:01:28 /0906/0906.0823 2240000[\arcmin, \affil, \apj, \citep, \pasj, \apjl, \nat, \aap, \Accepted, \email, \arcsec, \fs, \qjras, \araa, \KeyWords, \aj, \Published, \apss, \Received, \apjs, \FigureFile, \citet, \farcs, \SetRunningHead]; 1 missing file[pasj00.cls].
78800 2013-03-15 11:01:23 /0906/0906.0840 0120000[\map, \define, \triangleq, \arc, \argmin, \DeclareMathOperator, \logdet, \logtwodet, \argmax, \invmap].
<<< >>>

[0] [200] [400] [600] [800] [1000] [1200] [1400] [1600] [1800] [2000] [2200] [2400] [2600] [2800] [3000] [3200] [3400] [3600] [3800] [4000] [4200] [4400] [4600] [4800] [5000] [5200] [5400] [5600] [5800] [6000] [6200] [6400] [6600] [6800] [7000] [7200] [7400] [7600] [7800] [8000] [8200] [8400] [8600] [8800] [9000] [9200] [9400] [9600] [9800] [10000] [10200] [10400] [10600] [10800] [11000] [11200] [11400] [11600] [11800] [12000] [12200] [12400] [12600] [12800] [13000] [13200] [13400] [13600] [13800] [14000] [14200] [14400] [14600] [14800] [15000] [15200] [15400] [15600] [15800] [16000] [16200] [16400] [16600] [16800] [17000] [17200] [17400] [17600] [17800] [18000] [18200] [18400] [18600] [18800] [19000] [19200] [19400] [19600] [19800] [20000] [20200] [20400] [20600] [20800] [21000] [21200] [21400] [21600] [21800] [22000] [22200] [22400] [22600] [22800] [23000] [23200] [23400] [23600] [23800] [24000] [24200] [24400] [24600] [24800] [25000] [25200] [25400] [25600] [25800] [26000] [26200] [26400] [26600] [26800] [27000] [27200] [27400] [27600] [27800] [28000] [28200] [28400] [28600] [28800] [29000] [29200] [29400] [29600] [29800] [30000] [30200] [30400] [30600] [30800] [31000] [31200] [31400] [31600] [31800] [32000] [32200] [32400] [32600] [32800] [33000] [33200] [33400] [33600] [33800] [34000] [34200] [34400] [34600] [34800] [35000] [35200] [35400] [35600] [35800] [36000] [36200] [36400] [36600] [36800] [37000] [37200] [37400] [37600] [37800] [38000] [38200] [38400] [38600] [38800] [39000] [39200] [39400] [39600] [39800] [40000] [40200] [40400] [40600] [40800] [41000] [41200] [41400] [41600] [41800] [42000] [42200] [42400] [42600] [42800] [43000] [43200] [43400] [43600] [43800] [44000] [44200] [44400] [44600] [44800] [45000] [45200] [45400] [45600] [45800] [46000] [46200] [46400] [46600] [46800] [47000] [47200] [47400] [47600] [47800] [48000] [48200] [48400] [48600] [48800] [49000] [49200] [49400] [49600] [49800] [50000] [50200] [50400] [50600] [50800] [51000] [51200] [51400] [51600] [51800] [52000] [52200] [52400] [52600] [52800] [53000] [53200] [53400] [53600] [53800] [54000] [54200] [54400] [54600] [54800] [55000] [55200] [55400] [55600] [55800] [56000] [56200] [56400] [56600] [56800] [57000] [57200] [57400] [57600] [57800] [58000] [58200] [58400] [58600] [58800] [59000] [59200] [59400] [59600] [59800] [60000] [60200] [60400] [60600] [60800] [61000] [61200] [61400] [61600] [61800] [62000] [62200] [62400] [62600] [62800] [63000] [63200] [63400] [63600] [63800] [64000] [64200] [64400] [64600] [64800] [65000] [65200] [65400] [65600] [65800] [66000] [66200] [66400] [66600] [66800] [67000] [67200] [67400] [67600] [67800] [68000] [68200] [68400] [68600] [68800] [69000] [69200] [69400] [69600] [69800] [70000] [70200] [70400] [70600] [70800] [71000] [71200] [71400] [71600] [71800] [72000] [72200] [72400] [72600] [72800] [73000] [73200] [73400] [73600] [73800] [74000] [74200] [74400] [74600] [74800] [75000] [75200] [75400] [75600] [75800] [76000] [76200] [76400] [76600] [76800] [77000] [77200] [77400] [77600] [77800] [78000] [78200] [78400] [78600] [78800] [79000] [79200] [79400] [79600] [79800] [80000] [80200] [80400] [80600] [80800] [81000] [81200] [81400] [81600] [81800] [82000] [82200] [82400] [82600] [82800] [83000] [83200] [83400] [83600] [83800] [84000] [84200] [84400] [84600] [84800] [85000] [85200] [85400] [85600] [85800] [86000] [86200] [86400] [86600] [86800] [87000] [87200] [87400] [87600] [87800] [88000] [88200] [88400] [88600] [88800] [89000] [89200] [89400] [89600] [89800] [90000] [90200] [90400] [90600] [90800] [91000] [91200] [91400] [91600] [91800] [92000] [92200] [92400] [92600] [92800] [93000] [93200] [93400] [93600] [93800] [94000] [94200] [94400] [94600] [94800] [95000] [95200] [95400] [95600] [95800] [96000] [96200] [96400] [96600] [96800] [97000] [97200] [97400] [97600] [97800] [98000] [98200] [98400] [98600] [98800] [99000] [99200] [99400] [99600] [99800] [100000] [100200] [100400] [100600] [100800] [101000] [101200] [101400] [101600] [101800] [102000] [102200] [102400] [102600] [102800] [103000] [103200] [103400] [103600] [103800] [104000] [104200] [104400] [104600] [104800] [105000] [105200] [105400] [105600] [105800] [106000] [106200] [106400] [106600] [106800] [107000] [107200] [107400] [107600] [107800] [108000] [108200] [108400] [108600] [108800] [109000] [109200] [109400] [109600] [109800] [110000] [110200] [110400] [110600] [110800] [111000] [111200] [111400] [111600] [111800] [112000] [112200] [112400] [112600] [112800] [113000] [113200] [113400] [113600] [113800] [114000] [114200] [114400] [114600] [114800] [115000] [115200] [115400] [115600] [115800] [116000] [116200] [116400] [116600] [116800] [117000] [117200] [117400] [117600] [117800] [118000] [118200] [118400] [118600] [118800] [119000] [119200] [119400] [119600] [119800] [120000] [120200] [120400] [120600] [120800] [121000] [121200] [121400] [121600] [121800] [122000] [122200] [122400] [122600] [122800] [123000] [123200] [123400] [123600] [123800] [124000] [124200] [124400] [124600] [124800] [125000] [125200] [125400] [125600] [125800] [126000] [126200] [126400] [126600] [126800] [127000] [127200] [127400] [127600] [127800] [128000] [128200] [128400] [128600] [128800] [129000] [129200] [129400] [129600] [129800] [130000] [130200] [130400] [130600] [130800] [131000] [131200] [131400] [131600] [131800] [132000] [132200] [132400] [132600] [132800] [133000] [133200] [133400] [133600] [133800] [134000] [134200] [134400] [134600] [134800] [135000] [135200] [135400] [135600] [135800] [136000] [136200] [136400] [136600] [136800] [137000] [137200] [137400] [137600] [137800] [138000] [138200] [138400] [138600] [138800] [139000] [139200] [139400] [139600] [139800] [140000] [140200] [140400] [140600] [140800] [141000] [141200] [141400] [141600] [141800] [142000] [142200] [142400] [142600] [142800] [143000] [143200] [143400] [143600] [143800] [144000] [144200] [144400] [144600] [144800] [145000] [145200] [145400] [145600] [145800] [146000] [146200] [146400] [146600] [146800] [147000] [147200] [147400] [147600] [147800] [148000] [148200] [148400] [148600] [148800] [149000] [149200] [149400] [149600] [149800] [150000] [150200] [150400] [150600] [150800] [151000] [151200] [151400] [151600] [151800] [152000] [152200] [152400] [152600] [152800] [153000] [153200] [153400] [153600] [153800] [154000] [154200] [154400] [154600] [154800] [155000] [155200] [155400] [155600] [155800] [156000] [156200] [156400] [156600] [156800] [157000] [157200] [157400] [157600] [157800] [158000] [158200] [158400] [158600] [158800] [159000] [159200] [159400] [159600] [159800] [160000] [160200] [160400] [160600] [160800] [161000] [161200] [161400] [161600] [161800] [162000] [162200] [162400] [162600] [162800] [163000] [163200] [163400] [163600] [163800] [164000] [164200] [164400] [164600]
 
  The service has been written by
Heinrich Stamerjohanns